TimeEDT,TemperatureF,Dew PointF,Humidity,Sea Level PressureIn,VisibilityMPH,Wind Direction,Wind SpeedMPH,Gust SpeedMPH,PrecipitationIn,Events,Conditions,WindDirDegrees,DateUTC
12:14 AM,53.2,39.2,59,30.06,10.0,ESE,6.9,-,N/A,,Overcast,120,2013-05-28 04:14:00
12:34 AM,53.4,38.1,56,30.05,10.0,ESE,9.2,-,N/A,,Overcast,110,2013-05-28 04:34:00
12:54 AM,52.7,37.8,57,30.05,10.0,ESE,8.1,-,N/A,,Overcast,120,2013-05-28 04:54:00
1:14 AM,53.1,34.9,50,30.04,10.0,ESE,8.1,-,N/A,,Overcast,120,2013-05-28 05:14:00
1:34 AM,52.7,37.6,56,30.03,10.0,ESE,8.1,-,N/A,,Overcast,120,2013-05-28 05:34:00
1:54 AM,52.7,37.0,55,30.03,10.0,ESE,5.8,-,N/A,,Overcast,120,2013-05-28 05:54:00
2:14 AM,52.7,36.0,53,30.02,10.0,ESE,6.9,-,N/A,,Overcast,110,2013-05-28 06:14:00
2:33 AM,52.2,38.3,59,30.01,10.0,ESE,4.6,-,N/A,,Overcast,120,2013-05-28 06:33:00
2:54 AM,52.2,36.9,56,30.01,10.0,ESE,5.8,-,N/A,,Overcast,120,2013-05-28 06:54:00
3:14 AM,52.7,39.6,61,30.01,10.0,SE,5.8,-,N/A,,Overcast,140,2013-05-28 07:14:00
3:33 AM,52.7,40.8,64,30.00,10.0,SE,5.8,-,N/A,,Overcast,140,2013-05-28 07:33:00
3:54 AM,50.0,46.6,88,29.99,5.0,SE,6.9,-,N/A,,Drizzle,140,2013-05-28 07:54:00
4:14 AM,49.5,48.2,95,29.98,4.0,SE,6.9,-,N/A,,Drizzle,130,2013-05-28 08:14:00
4:33 AM,49.6,48.7,97,29.98,4.0,SE,5.8,-,N/A,,Drizzle,140,2013-05-28 08:33:00
4:54 AM,49.5,48.6,97,29.98,5.0,SE,8.1,-,N/A,Rain,Rain,130,2013-05-28 08:54:00
5:14 AM,49.1,48.2,97,29.98,7.0,East,4.6,-,N/A,,Light Drizzle,100,2013-05-28 09:14:00
5:33 AM,48.7,47.7,96,29.98,10.0,ESE,5.8,-,N/A,,Overcast,110,2013-05-28 09:33:00
5:54 AM,48.6,47.1,95,29.98,10.0,ESE,5.8,-,N/A,,Overcast,110,2013-05-28 09:54:00
6:14 AM,48.7,47.8,97,29.98,2.5,ESE,5.8,-,N/A,,Drizzle,120,2013-05-28 10:14:00
6:33 AM,48.6,47.8,97,29.98,1.2,ESE,6.9,-,N/A,,Drizzle,120,2013-05-28 10:33:00
6:54 AM,48.6,48.2,99,29.98,1.2,ESE,6.9,-,N/A,,Drizzle,120,2013-05-28 10:54:00
7:14 AM,48.4,47.8,98,29.98,1.5,ESE,8.1,-,N/A,,Drizzle,110,2013-05-28 11:14:00
7:34 AM,48.2,47.5,97,29.98,1.5,ESE,9.2,-,N/A,Rain,Rain,110,2013-05-28 11:34:00
7:54 AM,47.8,47.3,98,29.97,2.0,ESE,9.2,-,N/A,Rain,Light Rain,110,2013-05-28 11:54:00
8:14 AM,48.0,47.5,98,29.98,3.0,ESE,6.9,-,N/A,,Overcast,110,2013-05-28 12:14:00
8:34 AM,47.5,46.9,98,29.98,1.0,ESE,8.1,-,N/A,,Overcast,120,2013-05-28 12:34:00
8:54 AM,47.5,47.3,99,29.98,1.0,ESE,8.1,-,N/A,,Overcast,120,2013-05-28 12:54:00
9:14 AM,47.8,47.5,99,29.96,2.0,ESE,9.2,-,N/A,,Overcast,110,2013-05-28 13:14:00
9:34 AM,48.0,47.3,97,29.96,2.0,SE,6.9,-,N/A,,Overcast,130,2013-05-28 13:34:00
9:54 AM,48.9,48.2,97,29.95,3.0,ESE,9.2,-,N/A,,Overcast,110,2013-05-28 13:54:00
10:14 AM,48.6,47.5,96,29.95,4.0,ESE,8.1,-,N/A,,Overcast,120,2013-05-28 14:14:00
10:34 AM,48.9,47.7,95,29.94,4.0,ESE,6.9,-,N/A,,Overcast,120,2013-05-28 14:34:00
10:54 AM,49.1,47.8,95,29.93,5.0,ESE,10.4,-,N/A,,Overcast,110,2013-05-28 14:54:00
11:14 AM,49.6,48.0,94,29.91,5.0,East,10.4,16.1,N/A,,Overcast,100,2013-05-28 15:14:00
11:34 AM,49.6,48.2,95,29.92,4.0,SE,8.1,-,N/A,,Overcast,130,2013-05-28 15:34:00
11:54 AM,49.5,48.2,95,29.93,4.0,SE,5.8,-,N/A,,Overcast,140,2013-05-28 15:54:00
12:14 PM,49.5,48.4,96,29.93,3.0,SE,4.6,-,N/A,Rain,Light Rain,130,2013-05-28 16:14:00
12:34 PM,49.8,49.1,97,29.92,2.0,ESE,4.6,-,N/A,Rain,Light Rain,110,2013-05-28 16:34:00
12:54 PM,50.0,49.3,97,29.90,2.0,SE,8.1,-,0.01,Rain,Rain,130,2013-05-28 16:54:00
1:14 PM,49.8,49.3,98,29.89,2.0,East,6.9,-,0.02,Rain,Rain,100,2013-05-28 17:14:00
1:34 PM,49.3,48.7,98,29.88,2.0,East,3.5,-,0.04,Rain,Rain,100,2013-05-28 17:34:00
1:54 PM,49.8,49.1,97,29.89,2.5,Calm,Calm,-,0.06,Rain,Light Rain,0,2013-05-28 17:54:00
2:13 PM,50.7,50.2,98,29.91,3.0,Calm,Calm,-,0.01,Rain,Rain,0,2013-05-28 18:13:00
2:34 PM,50.9,50.4,98,29.90,1.5,Calm,Calm,-,0.10,Rain,Rain,0,2013-05-28 18:34:00
2:54 PM,52.0,51.4,98,29.86,4.0,East,6.9,-,0.13,Rain,Light Rain,80,2013-05-28 18:54:00
3:13 PM,51.4,50.9,98,29.83,2.5,East,9.2,-,0.01,Rain,Light Rain,90,2013-05-28 19:13:00
3:34 PM,52.0,51.6,99,29.87,1.8,South,5.8,-,0.01,Rain,Light Rain,180,2013-05-28 19:34:00
3:54 PM,52.5,52.0,98,29.87,2.0,Calm,Calm,-,0.02,Rain,Light Rain,0,2013-05-28 19:54:00
4:14 PM,52.7,52.2,98,29.85,2.0,East,3.5,-,N/A,Rain,Light Rain,100,2013-05-28 20:14:00
4:34 PM,52.2,51.8,99,29.85,2.5,East,3.5,-,0.01,Rain,Light Rain,80,2013-05-28 20:34:00
4:54 PM,52.9,52.7,99,29.84,3.0,ENE,3.5,-,0.01,Rain,Light Rain,70,2013-05-28 20:54:00
5:14 PM,52.5,52.0,98,29.84,3.0,East,3.5,-,N/A,,Overcast,80,2013-05-28 21:14:00
5:34 PM,53.6,53.2,99,29.82,3.0,East,3.5,-,N/A,,Overcast,90,2013-05-28 21:34:00
5:54 PM,54.7,54.3,99,29.82,4.0,Calm,Calm,-,N/A,,Overcast,0,2013-05-28 21:54:00
6:14 PM,55.6,54.9,97,29.82,4.0,Calm,Calm,-,N/A,,Overcast,0,2013-05-28 22:14:00
6:34 PM,55.2,54.5,97,29.81,4.0,NE,3.5,-,N/A,,Overcast,50,2013-05-28 22:34:00
6:54 PM,54.9,54.0,97,29.81,4.0,Calm,Calm,-,N/A,,Overcast,0,2013-05-28 22:54:00
7:14 PM,54.9,54.1,97,29.81,3.0,Calm,Calm,-,N/A,,Overcast,0,2013-05-28 23:14:00
7:34 PM,55.2,54.3,97,29.81,3.0,Calm,Calm,-,N/A,,Overcast,0,2013-05-28 23:34:00
7:54 PM,54.9,54.1,97,29.81,3.0,Calm,Calm,-,N/A,,Overcast,0,2013-05-28 23:54:00
8:14 PM,54.0,53.4,98,29.80,2.5,Calm,Calm,-,N/A,,Overcast,0,2013-05-29 00:14:00
8:34 PM,53.6,52.7,97,29.80,2.0,Calm,Calm,-,N/A,,Overcast,0,2013-05-29 00:34:00
8:54 PM,53.6,53.2,99,29.79,1.0,Calm,Calm,-,N/A,,Overcast,0,2013-05-29 00:54:00
9:14 PM,53.6,53.2,99,29.79,1.8,Calm,Calm,-,N/A,,Overcast,0,2013-05-29 01:14:00
9:34 PM,54.0,53.6,99,29.78,3.0,Calm,Calm,-,N/A,,Overcast,0,2013-05-29 01:34:00
9:54 PM,54.5,54.0,98,29.78,3.0,Calm,Calm,-,N/A,,Overcast,0,2013-05-29 01:54:00
10:14 PM,55.2,54.7,98,29.79,3.0,Calm,Calm,-,N/A,,Overcast,0,2013-05-29 02:14:00
10:34 PM,55.4,54.7,97,29.79,3.0,Calm,Calm,-,N/A,,Overcast,0,2013-05-29 02:34:00
10:54 PM,55.6,54.9,97,29.79,3.0,Calm,Calm,-,N/A,,Overcast,0,2013-05-29 02:54:00
11:14 PM,56.1,55.4,97,29.79,4.0,Calm,Calm,-,N/A,,Overcast,0,2013-05-29 03:14:00
11:34 PM,56.3,55.8,98,29.78,3.0,Calm,Calm,-,0.04,Rain,Light Rain,0,2013-05-29 03:34:00
11:53 PM,56.3,55.8,98,29.77,3.0,Calm,Calm,-,0.04,,Light Drizzle,0,2013-05-29 03:53:00